KWVL/WVL METAR and TAF weather

Enter ICAO airport designator
Station Type Date Time Source
KWVL METAR 2020/01/27 10:56 UTC NOAA

KWVL 271056Z AUTO 23006KT 10SM BKN060 OVC100 00/M01 A2947 RMK AO2 SLP009 T00001011 FZRANO


Station Type Date Time Source
KWVL Decoded METAR 2020/01/27 10:56 UTC NOAA

Waterville, Waterville Robert LaFleur Airport, ME, United States (KWVL) 44-32N 069-41W
Jan 27, 2020 - 05:56 AM EST / 2020.01.27 1056 UTC
Wind: from the SW (230 degrees) at 7 MPH (6 KT):0
Visibility: 10 mile(s):0
Sky conditions: overcast
Temperature: 32.0 F (0.0 C)
Windchill: 24 F (-4 C):1
Dew Point: 30.0 F (-1.1 C)
Relative Humidity: 92%
Pressure (altimeter): 29.47 in. Hg (997 hPa)
ob: KWVL 271056Z AUTO 23006KT 10SM BKN060 OVC100 00/M01 A2947 RMK AO2 SLP009 T00001011 FZRANO
cycle: 11

Station Type Date Time Source
KWVL TAF UTC NOAA

Error!

Example: see airport list